Newberry, SC (29108)

3:03 PM EDT on March 30, 2017 (GMT -0400)
Southeast side Newberry | | Change Station

Elev 568 ft 34.27 °N, 81.60 °W | Updated 3 seconds ago

Scattered Clouds
Scattered Clouds
73.2 °F
Feels Like 74 °F
N
1.3
Wind Variable Wind from NE
Gusts 2.7 mph

Today
High -- | Low -- °F
--% Chance of Precip.
Yesterday
High -- | Low -- °F
Precip. -- in
Pressure 29.97 in
Visibility 10.0 miles
Clouds Scattered Clouds 6000 ft
Scattered Clouds 6500 ft
Scattered Clouds 9000 ft
Heat Index 74 °F
Dew Point 66 °F
Humidity 79%
Rainfall 0.05 in
Snow Depth Not available.
7:16 AM 7:46 PM
Waxing Crescent, 10% visible
METAR KEOE 301855Z AUTO 07003KT 10SM SCT060 SCT065 SCT090 21/18 A2997 RMK AO2 LTG DSNT E
Pressure 29.97 in
Visibility 10.0 miles
Clouds Scattered Clouds 6000 ft
Scattered Clouds 6500 ft
Scattered Clouds 9000 ft
Heat Index 74 °F
Dew Point 66 °F
Humidity 79%
Rainfall 0.05 in
Snow Depth Not available.
7:16 AM 7:46 PM
Waxing Crescent, 10% visible
METAR KEOE 301855Z AUTO 07003KT 10SM SCT060 SCT065 SCT090 21/18 A2997 RMK AO2 LTG DSNT E

Get Severe Weather Alerts

Thanks for signing up!

Be on the lookout for a verification email in your inbox.

You'll start receiving the daily forecast at 8 AM.

×

10-Day Weather Forecast

Almanac

Astronomy

Mar. 30, 2017 Rise Set
Actual Time
Civil Twilight
Nautical Twilight
Astronomical Twilight
Moon
Length of Visible Light
Length of Day
Tomorrow will be .
, % of the Moon is Illuminated

Today's Extremes

State Highs State Lows

Community

WunderPhotos

Upload Photos

1,962,540 photos uploaded!

WunderBlog® & News

Nearby

Air Quality

  Air Quality AQ Index Pollutant
Not available.

Snow Depth

Station Depth Elevation

Earthquake Activity

City Distance Mag. Time & Date
Minimum magnitude displayed is 2.5.

Earthquake Activity

City Distance Mag. Time & Date
Minimum magnitude displayed is 2.5.

Coastal Water Temperatures

Place Temperature

Stations

Nearby Weather Stations

Station Location Temp. Windchill Dew Point Humidity Wind Precip. Elev Updated Type
                   

Watches & Warnings

There are currently no watches in effect.